Wawota, Canada
Current Conditions -  °F | °C
As of 9:00 PM on Friday 21 Nov 2014 (Local Time) from CYEN Reporting Station
Clear Clear  
Wind Chill: 23°   Ceiling: Unl
Heat Index: 30°   Visibility: 15mi
Dew Point: 27°   Wind: 8mph
Humidity: 86%   Direction: 240°WSW
Pressure: 29.58"   Gusts: NA
Location:  49.9°N, 102.02°W
Report Text: CYEN 220300Z 24007KT 15SM SKC M01/M03 A2958 RMK SLP044
Loading
Personal Weather Stations






























Interactive Weather Map New forecast layout! Learn more

10-Day Weather Forecast

Advertisements
Track Severe Weather on mobile